createdAt,value
2022-08-01T00:01:49.873Z,97.95
2022-08-01T00:04:16.404Z,98.85
2022-08-01T00:06:45.144Z,99.19
2022-08-01T00:09:11.731Z,100.00
2022-08-01T00:12:08.158Z,100.00
2022-08-01T00:14:34.785Z,100.00
2022-08-01T00:17:06.861Z,100.00
2022-08-01T00:19:34.605Z,100.00
2022-08-01T00:22:01.202Z,100.00
2022-08-01T00:24:27.649Z,100.00
2022-08-01T00:26:54.242Z,100.00
2022-08-01T00:30:01.007Z,100.00
2022-08-01T00:32:09.697Z,100.00
2022-08-01T00:34:37.676Z,100.00
2022-08-01T00:37:04.216Z,100.00
2022-08-01T00:39:30.810Z,100.00
2022-08-01T00:41:59.500Z,100.00
2022-08-01T00:44:29.369Z,100.00
2022-08-01T00:46:55.830Z,100.00
2022-08-01T00:49:22.446Z,100.00
2022-08-01T00:51:49.033Z,100.00
2022-08-01T00:54:17.049Z,100.00
2022-08-01T00:56:44.446Z,100.00
2022-08-01T00:59:13.981Z,100.00
2022-08-01T01:01:46.404Z,100.00
2022-08-01T01:04:14.138Z,100.00
2022-08-01T01:06:52.957Z,100.00
2022-08-01T01:09:32.453Z,100.00
2022-08-01T01:12:52.531Z,100.00
2022-08-01T01:15:27.645Z,100.00
2022-08-01T01:18:00.532Z,100.00
2022-08-01T01:20:33.048Z,100.00
2022-08-01T01:23:20.506Z,100.00
2022-08-01T01:26:25.616Z,100.00
2022-08-01T01:29:20.180Z,100.00
2022-08-01T01:32:09.083Z,100.00
2022-08-01T01:34:39.055Z,100.00
2022-08-01T01:37:09.847Z,100.00
2022-08-01T01:39:41.324Z,100.00
2022-08-01T01:42:12.203Z,100.00
2022-08-01T01:44:40.671Z,100.00
2022-08-01T01:47:09.701Z,100.00
2022-08-01T01:49:36.534Z,100.00
2022-08-01T01:52:05.268Z,100.00
2022-08-01T01:54:37.042Z,100.00
2022-08-01T01:57:05.329Z,100.00
2022-08-01T01:59:39.597Z,100.00
2022-08-01T02:02:08.705Z,100.00
2022-08-01T02:04:42.146Z,100.00
2022-08-01T02:07:10.212Z,100.00
2022-08-01T02:09:39.169Z,100.00
2022-08-01T02:12:07.798Z,100.00
2022-08-01T02:14:36.800Z,100.00
2022-08-01T02:17:04.045Z,100.00
2022-08-01T02:19:30.996Z,100.00
2022-08-01T02:22:02.535Z,100.00
2022-08-01T02:24:55.855Z,100.00
2022-08-01T02:27:26.799Z,100.00
2022-08-01T02:30:00.310Z,100.00
2022-08-01T02:32:35.679Z,100.00
2022-08-01T02:35:03.655Z,100.00
2022-08-01T02:37:34.439Z,100.00
2022-08-01T02:40:01.146Z,100.00
2022-08-01T02:42:30.389Z,100.00
2022-08-01T02:44:58.176Z,100.00
2022-08-01T02:47:27.523Z,100.00
2022-08-01T02:50:03.823Z,100.00
2022-08-01T02:52:32.661Z,100.00
2022-08-01T02:55:00.968Z,100.00
2022-08-01T02:57:39.487Z,99.97
2022-08-01T03:00:17.925Z,99.14
2022-08-01T03:02:46.059Z,98.22
2022-08-01T03:05:15.033Z,97.87
2022-08-01T03:07:42.806Z,96.72
2022-08-01T03:10:11.557Z,95.95
2022-08-01T03:12:40.048Z,95.72
2022-08-01T03:15:08.094Z,95.76
2022-08-01T03:17:40.380Z,95.48
2022-08-01T03:20:07.371Z,95.84
2022-08-01T03:22:35.918Z,96.07
2022-08-01T03:25:03.954Z,97.02
2022-08-01T03:27:30.921Z,97.82
2022-08-01T03:29:59.106Z,98.05
2022-08-01T03:32:28.161Z,98.08
2022-08-01T03:34:54.855Z,98.74
2022-08-01T03:37:27.517Z,99.52
2022-08-01T03:40:07.260Z,100.00
2022-08-01T03:42:45.907Z,100.00
2022-08-01T03:45:20.696Z,100.00
2022-08-01T03:47:49.294Z,100.00
2022-08-01T03:50:22.516Z,100.00
2022-08-01T03:52:51.771Z,100.00
2022-08-01T03:55:19.813Z,100.00
2022-08-01T03:57:48.122Z,100.00
2022-08-01T04:00:15.324Z,100.00
2022-08-01T04:02:42.931Z,100.00
2022-08-01T04:05:09.983Z,100.00
2022-08-01T04:07:36.352Z,100.00
2022-08-01T04:10:03.251Z,100.00
2022-08-01T04:12:29.801Z,100.00
2022-08-01T04:14:56.553Z,100.00
2022-08-01T04:17:22.919Z,100.00
2022-08-01T04:19:49.475Z,100.00
2022-08-01T04:22:17.033Z,100.00
2022-08-01T04:24:52.190Z,100.00
2022-08-01T04:27:49.798Z,100.00
2022-08-01T04:30:18.108Z,100.00
2022-08-01T04:32:48.360Z,100.00
2022-08-01T04:35:22.930Z,100.00
2022-08-01T04:38:11.455Z,100.00
2022-08-01T04:40:39.023Z,100.00
2022-08-01T04:43:05.857Z,100.00
2022-08-01T04:45:33.553Z,100.00
2022-08-01T04:48:01.071Z,100.00
2022-08-01T04:50:28.271Z,100.00
2022-08-01T04:52:55.936Z,99.90
2022-08-01T04:55:22.411Z,99.53
2022-08-01T04:57:49.013Z,99.89
2022-08-01T05:00:16.149Z,100.00
2022-08-01T05:02:42.798Z,98.68
2022-08-01T05:05:09.881Z,89.35
2022-08-01T05:07:44.956Z,82.29
2022-08-01T05:10:12.788Z,78.93
2022-08-01T05:12:39.270Z,74.61
2022-08-01T05:15:15.173Z,74.26
2022-08-01T05:17:42.266Z,74.06
2022-08-01T05:20:09.149Z,78.70
2022-08-01T05:22:35.624Z,83.44
2022-08-01T05:25:03.134Z,85.63
2022-08-01T05:27:32.787Z,87.14
2022-08-01T05:30:00.423Z,86.84
2022-08-01T05:32:26.889Z,88.63
2022-08-01T05:34:53.253Z,88.88
2022-08-01T05:37:19.892Z,88.54
2022-08-01T05:39:46.431Z,86.51
2022-08-01T05:42:13.108Z,82.45
2022-08-01T05:44:40.724Z,80.51
2022-08-01T05:47:07.248Z,79.39
2022-08-01T05:49:33.790Z,79.38
2022-08-01T05:52:00.516Z,78.31
2022-08-01T05:54:26.919Z,77.73
2022-08-01T05:56:53.343Z,75.67
2022-08-01T05:59:20.330Z,73.39
2022-08-01T06:01:46.771Z,73.19
2022-08-01T06:04:13.428Z,74.67
2022-08-01T06:06:39.851Z,74.13
2022-08-01T06:09:06.331Z,73.69
2022-08-01T06:11:32.914Z,72.96
2022-08-01T06:13:59.287Z,72.18
2022-08-01T06:16:27.132Z,72.53
2022-08-01T06:18:56.624Z,70.60
2022-08-01T06:21:26.486Z,69.87
2022-08-01T06:23:53.190Z,69.50
2022-08-01T06:26:19.988Z,67.74
2022-08-01T06:28:46.629Z,67.83
2022-08-01T06:31:13.178Z,68.08
2022-08-01T06:33:39.619Z,68.76
2022-08-01T06:36:06.461Z,69.13
2022-08-01T06:38:33.878Z,67.31
2022-08-01T06:41:00.356Z,67.06
2022-08-01T06:43:27.033Z,69.34
2022-08-01T06:45:55.682Z,68.97
2022-08-01T06:48:22.130Z,67.54
2022-08-01T06:50:48.909Z,68.36
2022-08-01T06:53:15.654Z,67.05
2022-08-01T06:55:43.611Z,67.21
2022-08-01T06:58:10.316Z,66.38
2022-08-01T07:00:41.487Z,65.74
2022-08-01T07:03:11.091Z,64.34
2022-08-01T07:05:37.604Z,65.04
2022-08-01T07:08:04.270Z,64.33
2022-08-01T07:10:32.017Z,64.94
2022-08-01T07:12:58.531Z,63.75
2022-08-01T07:15:25.286Z,63.55
2022-08-01T07:17:51.976Z,63.12
2022-08-01T07:20:19.143Z,62.48
2022-08-01T07:22:48.161Z,62.46
2022-08-01T07:25:15.381Z,61.76
2022-08-01T07:27:41.813Z,62.80
2022-08-01T07:30:08.985Z,61.10
2022-08-01T07:32:35.738Z,60.42
2022-08-01T07:35:03.660Z,59.53
2022-08-01T07:37:42.109Z,59.34
2022-08-01T07:40:15.366Z,60.40
2022-08-01T07:42:42.033Z,60.24
2022-08-01T07:45:09.080Z,58.36
2022-08-01T07:47:35.729Z,59.61
2022-08-01T07:50:03.917Z,58.94
2022-08-01T07:52:30.370Z,60.06
2022-08-01T07:54:57.864Z,58.21
2022-08-01T07:57:25.350Z,56.90
2022-08-01T07:59:52.907Z,55.98
2022-08-01T08:02:19.478Z,57.14
2022-08-01T08:04:49.122Z,56.92
2022-08-01T08:07:17.484Z,56.08
2022-08-01T08:09:44.178Z,53.81
2022-08-01T08:12:17.701Z,54.66
2022-08-01T08:14:44.982Z,54.73
2022-08-01T08:17:11.441Z,53.67
2022-08-01T08:19:39.154Z,54.08
2022-08-01T08:22:07.775Z,54.49
2022-08-01T08:24:34.911Z,53.41
2022-08-01T08:27:02.690Z,52.55
2022-08-01T08:29:30.856Z,52.71
2022-08-01T08:31:57.815Z,52.81
2022-08-01T08:34:24.973Z,53.95
2022-08-01T08:36:52.504Z,53.72
2022-08-01T08:39:19.891Z,53.24
2022-08-01T08:41:49.573Z,52.60
2022-08-01T08:44:19.350Z,49.41
2022-08-01T08:46:52.151Z,50.05
2022-08-01T08:49:21.599Z,51.84
2022-08-01T08:51:51.952Z,51.71
2022-08-01T08:54:20.742Z,52.88
2022-08-01T08:56:48.016Z,51.39
2022-08-01T08:59:17.112Z,50.13
2022-08-01T09:01:43.873Z,48.90
2022-08-01T09:04:12.501Z,50.16
2022-08-01T09:06:40.846Z,50.29
2022-08-01T09:09:09.646Z,49.88
2022-08-01T09:11:38.226Z,49.67
2022-08-01T09:14:11.393Z,49.03
2022-08-01T09:16:47.963Z,47.01
2022-08-01T09:19:39.899Z,46.52
2022-08-01T09:22:19.742Z,45.72
2022-08-01T09:25:11.345Z,46.08
2022-08-01T09:27:44.157Z,45.92
2022-08-01T09:30:19.637Z,42.95
2022-08-01T09:32:58.783Z,45.03
2022-08-01T09:35:32.023Z,42.64
2022-08-01T09:38:19.942Z,42.29
2022-08-01T09:41:02.218Z,41.73
2022-08-01T09:43:31.956Z,43.23
2022-08-01T09:46:00.025Z,43.82
2022-08-01T09:48:28.602Z,43.45
2022-08-01T09:51:04.042Z,45.25
2022-08-01T09:54:03.093Z,45.72
2022-08-01T09:56:38.225Z,46.58
2022-08-01T09:59:05.797Z,47.48
2022-08-01T10:01:47.025Z,48.30
2022-08-01T10:04:21.084Z,46.65
2022-08-01T10:06:50.233Z,45.11
2022-08-01T10:09:28.290Z,44.09
2022-08-01T10:12:15.464Z,44.19
2022-08-01T10:14:46.037Z,43.97
2022-08-01T10:17:18.370Z,43.36
2022-08-01T10:19:48.882Z,43.75
2022-08-01T10:22:15.566Z,43.90
2022-08-01T10:24:44.917Z,43.88
2022-08-01T10:27:14.633Z,43.59
2022-08-01T10:30:06.806Z,42.91
2022-08-01T10:32:42.505Z,42.37
2022-08-01T10:35:15.320Z,41.61
2022-08-01T10:37:52.095Z,41.29
2022-08-01T10:40:30.005Z,40.46
2022-08-01T10:42:58.016Z,39.98
2022-08-01T10:45:25.428Z,40.73
2022-08-01T10:48:00.870Z,41.19
2022-08-01T10:50:49.413Z,41.54
2022-08-01T10:53:31.876Z,41.85
2022-08-01T10:56:09.089Z,42.09
2022-08-01T10:58:42.554Z,42.25
2022-08-01T11:01:21.710Z,42.30
2022-08-01T11:04:02.881Z,42.25
2022-08-01T11:06:33.507Z,42.93
2022-08-01T11:09:05.777Z,42.83
2022-08-01T11:11:37.236Z,41.51
2022-08-01T11:14:05.813Z,42.13
2022-08-01T11:16:32.992Z,40.75
2022-08-01T11:18:59.642Z,39.70
2022-08-01T11:22:01.173Z,39.94
2022-08-01T11:24:50.629Z,40.89
2022-08-01T11:27:23.914Z,41.39
2022-08-01T11:30:09.329Z,41.18
2022-08-01T11:33:12.162Z,41.86
2022-08-01T11:36:01.076Z,41.06
2022-08-01T11:38:29.112Z,41.53
2022-08-01T11:41:16.786Z,40.58
2022-08-01T11:44:06.147Z,41.17
2022-08-01T11:46:54.865Z,41.13
2022-08-01T11:49:43.464Z,41.12
2022-08-01T11:52:14.779Z,40.85
2022-08-01T11:54:49.383Z,41.18
2022-08-01T11:57:23.028Z,41.52
2022-08-01T12:00:03.280Z,42.34
2022-08-01T12:02:35.282Z,42.45
2022-08-01T12:05:08.337Z,42.47
2022-08-01T12:07:36.895Z,41.88
2022-08-01T12:10:11.674Z,42.40
2022-08-01T12:12:44.285Z,42.95
2022-08-01T12:15:11.749Z,43.17
2022-08-01T12:17:47.092Z,43.16
2022-08-01T12:20:29.615Z,43.33
2022-08-01T12:22:59.061Z,42.87
2022-08-01T12:25:25.559Z,43.29
2022-08-01T12:27:56.022Z,43.03
2022-08-01T12:30:26.100Z,43.16
2022-08-01T12:32:54.275Z,42.30
2022-08-01T12:35:23.039Z,42.72
2022-08-01T12:38:00.892Z,42.98
2022-08-01T12:40:30.375Z,41.78
2022-08-01T12:42:59.825Z,39.97
2022-08-01T12:45:28.816Z,40.19
2022-08-01T12:47:56.083Z,40.59
2022-08-01T12:50:24.779Z,39.35
2022-08-01T12:52:51.852Z,39.71
2022-08-01T12:55:22.306Z,39.66
2022-08-01T12:57:51.382Z,40.85
2022-08-01T13:00:19.625Z,41.97
2022-08-01T13:02:48.473Z,42.44
2022-08-01T13:05:16.204Z,42.26
2022-08-01T13:07:51.352Z,41.76
2022-08-01T13:10:29.801Z,42.27
2022-08-01T13:12:58.979Z,42.89
2022-08-01T13:15:32.439Z,41.71
2022-08-01T13:18:00.969Z,41.55
2022-08-01T13:20:34.128Z,41.60
2022-08-01T13:24:01.908Z,40.08
2022-08-01T13:26:05.294Z,40.13
2022-08-01T13:28:31.836Z,40.01
2022-08-01T13:31:06.658Z,40.03
2022-08-01T13:33:54.223Z,41.91
2022-08-01T13:36:31.127Z,41.10
2022-08-01T13:38:58.890Z,41.25
2022-08-01T13:41:25.619Z,40.77
2022-08-01T13:44:01.280Z,40.78
2022-08-01T13:46:29.620Z,39.44
2022-08-01T13:48:58.689Z,39.49
2022-08-01T13:51:32.318Z,39.01
2022-08-01T13:53:58.983Z,39.28
2022-08-01T13:56:25.888Z,40.37
2022-08-01T13:58:52.301Z,40.39
2022-08-01T14:01:18.975Z,40.80
2022-08-01T14:03:47.082Z,40.69
2022-08-01T14:06:15.515Z,41.17
2022-08-01T14:08:45.998Z,40.39
2022-08-01T14:11:12.733Z,41.15
2022-08-01T14:13:40.466Z,41.16
2022-08-01T14:16:13.351Z,41.22
2022-08-01T14:18:42.067Z,41.65
2022-08-01T14:21:10.837Z,41.10
2022-08-01T14:23:37.368Z,40.96
2022-08-01T14:26:09.766Z,41.41
2022-08-01T14:28:40.409Z,40.75
2022-08-01T14:31:08.042Z,40.14
2022-08-01T14:33:34.788Z,39.80
2022-08-01T14:36:29.700Z,39.04
2022-08-01T14:38:48.491Z,39.10
2022-08-01T14:41:15.668Z,39.60
2022-08-01T14:43:42.145Z,39.44
2022-08-01T14:46:08.771Z,39.83
2022-08-01T14:48:35.134Z,40.25
2022-08-01T14:51:01.713Z,41.15
2022-08-01T14:53:28.080Z,41.29
2022-08-01T14:55:54.792Z,41.38
2022-08-01T14:58:21.476Z,41.32
2022-08-01T15:00:48.593Z,40.77
2022-08-01T15:03:16.418Z,41.03
2022-08-01T15:05:42.853Z,40.86
2022-08-01T15:08:09.310Z,40.91
2022-08-01T15:10:35.777Z,40.49
2022-08-01T15:13:02.407Z,41.66
2022-08-01T15:15:28.911Z,41.69
2022-08-01T15:17:56.724Z,41.55
2022-08-01T15:20:23.568Z,41.74
2022-08-01T15:22:50.257Z,41.75
2022-08-01T15:25:17.009Z,42.09
2022-08-01T15:27:43.489Z,41.72
2022-08-01T15:30:10.271Z,42.30
2022-08-01T15:32:36.719Z,42.24
2022-08-01T15:35:03.436Z,42.38
2022-08-01T15:37:29.837Z,42.59
2022-08-01T15:39:56.841Z,42.77
2022-08-01T15:42:27.023Z,42.76
2022-08-01T15:44:56.372Z,43.29
2022-08-01T15:47:24.937Z,43.32
2022-08-01T15:49:52.419Z,42.92
2022-08-01T15:52:22.069Z,42.61
2022-08-01T15:54:53.890Z,42.89
2022-08-01T15:57:20.332Z,42.56
2022-08-01T15:59:46.800Z,42.87
2022-08-01T16:02:13.440Z,41.92
2022-08-01T16:04:40.193Z,41.74
2022-08-01T16:07:06.977Z,41.63
2022-08-01T16:09:33.618Z,41.37
2022-08-01T16:12:00.465Z,41.30
2022-08-01T16:14:26.895Z,41.04
2022-08-01T16:16:56.519Z,41.39
2022-08-01T16:19:22.977Z,42.26
2022-08-01T16:21:49.688Z,44.27
2022-08-01T16:24:16.182Z,48.97
2022-08-01T16:26:42.855Z,52.67
2022-08-01T16:29:09.367Z,52.72
2022-08-01T16:31:51.392Z,50.28
2022-08-01T16:34:22.318Z,49.86
2022-08-01T16:36:51.536Z,50.54
2022-08-01T16:39:22.765Z,50.73
2022-08-01T16:41:50.218Z,52.65
2022-08-01T16:44:29.101Z,52.36
2022-08-01T16:47:00.619Z,53.03
2022-08-01T16:49:28.533Z,53.50
2022-08-01T16:51:55.727Z,54.32
2022-08-01T16:54:25.485Z,55.85
2022-08-01T16:56:52.926Z,56.44
2022-08-01T16:59:19.631Z,57.51
2022-08-01T17:01:59.351Z,57.50
2022-08-01T17:04:29.326Z,57.59
2022-08-01T17:06:57.809Z,56.85
2022-08-01T17:09:24.404Z,58.29
2022-08-01T17:11:51.250Z,58.54
2022-08-01T17:14:18.009Z,58.94
2022-08-01T17:16:44.779Z,60.43
2022-08-01T17:19:11.250Z,60.21
2022-08-01T17:21:41.225Z,59.19
2022-08-01T17:24:08.637Z,58.61
2022-08-01T17:26:35.217Z,59.14
2022-08-01T17:29:01.589Z,59.90
2022-08-01T17:31:28.339Z,60.94
2022-08-01T17:33:55.402Z,60.38
2022-08-01T17:36:22.377Z,61.93
2022-08-01T17:38:49.263Z,63.88
2022-08-01T17:41:16.797Z,65.53
2022-08-01T17:43:43.420Z,65.99
2022-08-01T17:46:11.486Z,66.75
2022-08-01T17:48:37.879Z,67.94
2022-08-01T17:51:04.340Z,67.71
2022-08-01T17:53:30.875Z,66.49
2022-08-01T17:55:58.131Z,66.46
2022-08-01T17:58:33.168Z,65.83
2022-08-01T18:01:16.577Z,65.44
2022-08-01T18:03:46.523Z,65.69
2022-08-01T18:06:15.729Z,65.70
2022-08-01T18:08:42.995Z,65.26
2022-08-01T18:11:09.558Z,65.50
2022-08-01T18:13:36.304Z,64.96
2022-08-01T18:16:04.116Z,64.92
2022-08-01T18:18:33.016Z,65.35
2022-08-01T18:21:02.438Z,64.80
2022-08-01T18:23:29.103Z,64.56
2022-08-01T18:25:55.879Z,63.96
2022-08-01T18:28:33.721Z,64.62
2022-08-01T18:31:03.724Z,65.22
2022-08-01T18:33:30.368Z,65.31
2022-08-01T18:36:01.655Z,65.43
2022-08-01T18:38:30.053Z,64.72
2022-08-01T18:40:57.268Z,65.05
2022-08-01T18:43:24.062Z,65.24
2022-08-01T18:45:50.585Z,65.90
2022-08-01T18:48:18.045Z,65.94
2022-08-01T18:50:45.416Z,66.68
2022-08-01T18:53:12.188Z,67.09
2022-08-01T18:55:38.688Z,67.51
2022-08-01T18:58:05.338Z,68.06
2022-08-01T19:00:32.380Z,67.97
2022-08-01T19:02:58.767Z,68.67
2022-08-01T19:05:25.234Z,69.08
2022-08-01T19:08:05.093Z,69.49
2022-08-01T19:10:41.997Z,70.31
2022-08-01T19:13:09.246Z,70.19
2022-08-01T19:15:36.040Z,70.99
2022-08-01T19:18:02.589Z,70.92
2022-08-01T19:20:29.339Z,70.54
2022-08-01T19:22:57.838Z,71.61
2022-08-01T19:25:24.525Z,72.20
2022-08-01T19:27:51.306Z,72.25
2022-08-01T19:30:18.881Z,72.96
2022-08-01T19:32:47.230Z,72.86
2022-08-01T19:35:15.326Z,73.83
2022-08-01T19:37:43.757Z,75.81
2022-08-01T19:40:10.613Z,77.70
2022-08-01T19:42:40.690Z,79.46
2022-08-01T19:45:08.301Z,78.80
2022-08-01T19:47:51.851Z,82.56
2022-08-01T19:50:21.511Z,83.87
2022-08-01T19:52:51.779Z,85.09
2022-08-01T19:55:18.729Z,86.21
2022-08-01T19:57:59.438Z,88.42
2022-08-01T20:00:37.126Z,91.27
2022-08-01T20:03:04.331Z,93.55
2022-08-01T20:05:31.984Z,94.69
2022-08-01T20:07:59.725Z,97.39
2022-08-01T20:10:26.402Z,98.76
2022-08-01T20:12:56.474Z,100.00
2022-08-01T20:15:26.703Z,100.00
2022-08-01T20:17:58.059Z,100.00
2022-08-01T20:20:24.777Z,100.00
2022-08-01T20:22:55.923Z,100.00
2022-08-01T20:25:33.336Z,100.00
2022-08-01T20:28:10.902Z,100.00
2022-08-01T20:30:39.000Z,100.00
2022-08-01T20:33:07.160Z,100.00
2022-08-01T20:35:52.015Z,100.00
2022-08-01T20:38:23.937Z,100.00
2022-08-01T20:40:52.632Z,100.00
2022-08-01T20:43:21.061Z,100.00
2022-08-01T20:45:48.502Z,100.00
2022-08-01T20:48:16.758Z,100.00
2022-08-01T20:50:53.249Z,100.00
2022-08-01T20:53:21.378Z,100.00
2022-08-01T20:55:59.482Z,100.00
2022-08-01T20:58:50.245Z,100.00
2022-08-01T21:01:25.080Z,100.00
2022-08-01T21:04:22.983Z,100.00
2022-08-01T21:06:59.055Z,100.00
2022-08-01T21:09:27.207Z,100.00
2022-08-01T21:12:05.933Z,100.00
2022-08-01T21:14:53.402Z,100.00
2022-08-01T21:17:51.180Z,100.00
2022-08-01T21:20:19.666Z,100.00
2022-08-01T21:22:54.896Z,100.00
2022-08-01T21:25:27.155Z,100.00
2022-08-01T21:27:55.002Z,100.00
2022-08-01T21:30:24.149Z,100.00
2022-08-01T21:32:52.128Z,100.00
2022-08-01T21:35:24.890Z,100.00
2022-08-01T21:37:52.998Z,100.00
2022-08-01T21:40:24.751Z,100.00
2022-08-01T21:42:52.916Z,100.00
2022-08-01T21:45:26.850Z,100.00
2022-08-01T21:47:54.361Z,100.00
2022-08-01T21:50:21.928Z,100.00
2022-08-01T21:53:09.102Z,100.00
2022-08-01T21:55:59.600Z,100.00
2022-08-01T21:58:33.712Z,100.00
2022-08-01T22:01:03.860Z,100.00
2022-08-01T22:03:35.492Z,100.00
2022-08-01T22:06:05.725Z,100.00
2022-08-01T22:08:36.021Z,100.00
2022-08-01T22:11:07.637Z,100.00
2022-08-01T22:13:36.024Z,100.00
2022-08-01T22:16:04.789Z,100.00
2022-08-01T22:18:32.500Z,100.00
2022-08-01T22:21:02.150Z,100.00
2022-08-01T22:23:29.168Z,100.00
2022-08-01T22:25:56.166Z,100.00
2022-08-01T22:28:25.295Z,100.00
2022-08-01T22:30:52.473Z,100.00
2022-08-01T22:33:19.866Z,100.00
2022-08-01T22:35:50.982Z,100.00
2022-08-01T22:38:19.041Z,100.00
2022-08-01T22:40:55.698Z,100.00
2022-08-01T22:43:42.859Z,100.00
2022-08-01T22:46:24.393Z,100.00
2022-08-01T22:49:00.901Z,100.00
2022-08-01T22:51:55.362Z,100.00
2022-08-01T22:54:28.817Z,100.00
2022-08-01T22:56:56.904Z,100.00
2022-08-01T22:59:43.240Z,100.00
2022-08-01T23:02:17.353Z,100.00
2022-08-01T23:04:47.681Z,100.00
2022-08-01T23:07:26.519Z,100.00
2022-08-01T23:09:56.349Z,100.00
2022-08-01T23:12:25.213Z,100.00
2022-08-01T23:14:57.677Z,100.00
2022-08-01T23:17:31.591Z,100.00
2022-08-01T23:20:05.552Z,100.00
2022-08-01T23:22:35.930Z,100.00
2022-08-01T23:25:06.771Z,100.00
2022-08-01T23:28:03.679Z,100.00
2022-08-01T23:30:28.273Z,100.00
2022-08-01T23:32:55.046Z,100.00
2022-08-01T23:35:21.747Z,100.00
2022-08-01T23:37:48.503Z,100.00
2022-08-01T23:40:14.986Z,100.00
2022-08-01T23:42:44.103Z,100.00
2022-08-01T23:45:10.869Z,100.00
2022-08-01T23:47:37.722Z,100.00
2022-08-01T23:50:04.588Z,100.00
2022-08-01T23:52:33.948Z,100.00
2022-08-01T23:55:10.880Z,100.00
2022-08-01T23:57:42.424Z,100.00
